createdAt,value
2018-10-21T00:04:30.538Z,28.63
2018-10-21T00:09:35.460Z,24.45
2018-10-21T00:14:40.212Z,25.02
2018-10-21T00:19:45.284Z,24.30
2018-10-21T00:24:49.675Z,24.67
2018-10-21T00:29:54.150Z,23.03
2018-10-21T00:34:58.515Z,24.80
2018-10-21T00:40:03.079Z,23.22
2018-10-21T00:45:09.510Z,24.40
2018-10-21T00:50:14.212Z,25.67
2018-10-21T00:55:18.596Z,26.20
2018-10-21T01:00:23.798Z,27.80
2018-10-21T01:05:29.059Z,23.77
2018-10-21T01:10:33.344Z,24.40
2018-10-21T01:15:37.779Z,24.73
2018-10-21T01:20:42.855Z,24.47
2018-10-21T01:25:48.427Z,28.27
2018-10-21T01:30:53.478Z,27.93
2018-10-21T01:35:58.274Z,24.13
2018-10-21T01:41:02.912Z,24.47
2018-10-21T01:46:07.440Z,26.57
2018-10-21T01:51:12.571Z,27.30
2018-10-21T01:56:16.970Z,25.20
2018-10-21T02:01:21.377Z,29.60
2018-10-21T02:06:25.615Z,29.33
2018-10-21T02:11:33.164Z,30.60
2018-10-21T02:16:37.541Z,34.23
2018-10-21T02:21:42.086Z,32.27
2018-10-21T02:26:46.965Z,32.80
2018-10-21T02:31:51.456Z,30.10
2018-10-21T02:36:56.186Z,29.97
2018-10-21T02:42:00.820Z,28.60
2018-10-21T02:47:05.577Z,33.50
2018-10-21T02:52:11.194Z,29.23
2018-10-21T02:57:16.446Z,30.43
2018-10-21T03:02:20.938Z,30.77
2018-10-21T03:07:25.377Z,30.57
2018-10-21T03:12:29.740Z,30.90
2018-10-21T03:17:34.187Z,27.70
2018-10-21T03:22:38.764Z,27.23
2018-10-21T03:27:43.190Z,27.60
2018-10-21T03:32:47.608Z,29.07
2018-10-21T03:37:52.889Z,29.10
2018-10-21T03:42:57.418Z,29.90
2018-10-21T03:48:01.917Z,30.10
2018-10-21T03:53:06.627Z,26.10
2018-10-21T03:58:11.075Z,28.60
2018-10-21T04:03:15.582Z,28.47
2018-10-21T04:08:19.945Z,28.07
2018-10-21T04:13:24.641Z,27.40
2018-10-21T04:18:29.154Z,26.57
2018-10-21T04:23:33.996Z,29.97
2018-10-21T04:28:40.053Z,26.03
2018-10-21T04:33:45.616Z,28.43
2018-10-21T04:40:03.779Z,27.07
2018-10-21T04:45:08.733Z,29.53
2018-10-21T04:50:13.464Z,27.50
2018-10-21T04:55:17.916Z,28.50
2018-10-21T05:00:22.663Z,26.07
2018-10-21T05:05:28.029Z,27.27
2018-10-21T05:10:33.853Z,27.43
2018-10-21T05:15:39.386Z,26.47
2018-10-21T05:20:44.411Z,28.10
2018-10-21T05:25:48.690Z,28.07
2018-10-21T05:30:53.643Z,25.43
2018-10-21T05:35:58.313Z,27.47
2018-10-21T05:41:02.943Z,27.13
2018-10-21T05:46:07.605Z,26.33
2018-10-21T05:51:11.955Z,26.60
2018-10-21T05:56:16.530Z,26.00
2018-10-21T06:01:20.972Z,26.60
2018-10-21T06:06:25.717Z,26.40
2018-10-21T06:11:30.576Z,26.35
2018-10-21T06:16:45.635Z,26.53
2018-10-21T06:21:50.219Z,26.20
2018-10-21T06:26:54.959Z,26.07
2018-10-21T06:32:00.073Z,24.43
2018-10-21T06:37:05.455Z,25.32
2018-10-21T06:42:09.958Z,22.90
2018-10-21T06:47:14.523Z,23.10
2018-10-21T06:52:19.259Z,21.17
2018-10-21T06:57:23.940Z,21.45
2018-10-21T07:02:28.454Z,21.55
2018-10-21T07:07:32.877Z,21.65
2018-10-21T07:12:37.289Z,20.50
2018-10-21T07:17:42.250Z,21.93
2018-10-21T07:22:46.653Z,22.05
2018-10-21T07:27:51.210Z,19.48
2018-10-21T07:32:55.829Z,19.95
2018-10-21T07:38:06.715Z,20.12
2018-10-21T07:43:11.036Z,19.85
2018-10-21T07:48:15.728Z,19.23
2018-10-21T07:53:20.264Z,18.67
2018-10-21T07:58:25.355Z,18.67
2018-10-21T08:03:30.340Z,19.17
2018-10-21T08:08:35.409Z,21.25
2018-10-21T08:13:40.479Z,19.92
2018-10-21T08:18:45.461Z,20.82
2018-10-21T08:23:50.093Z,18.85
2018-10-21T08:28:54.685Z,20.97
2018-10-21T08:33:59.277Z,20.10
2018-10-21T08:39:03.747Z,20.32
2018-10-21T08:44:08.166Z,18.95
2018-10-21T08:49:12.672Z,20.12
2018-10-21T08:54:17.015Z,18.75
2018-10-21T08:59:22.172Z,18.37
2018-10-21T09:04:27.372Z,17.02
2018-10-21T09:09:31.761Z,19.52
2018-10-21T09:14:36.528Z,17.07
2018-10-21T09:19:41.044Z,15.90
2018-10-21T09:24:45.459Z,17.82
2018-10-21T09:29:49.883Z,17.30
2018-10-21T09:34:54.424Z,16.48
2018-10-21T09:39:58.855Z,15.55
2018-10-21T09:45:03.705Z,16.20
2018-10-21T09:50:08.387Z,14.53
2018-10-21T09:55:19.263Z,16.82
2018-10-21T10:00:29.402Z,16.00
2018-10-21T10:05:33.918Z,15.05
2018-10-21T10:10:45.359Z,13.80
2018-10-21T10:15:49.936Z,15.13
2018-10-21T10:20:54.310Z,14.83
2018-10-21T10:25:59.606Z,14.50
2018-10-21T10:31:04.785Z,13.53
2018-10-21T10:36:09.172Z,15.00
2018-10-21T10:41:14.204Z,17.45
2018-10-21T10:46:18.552Z,17.87
2018-10-21T10:51:23.061Z,17.20
2018-10-21T10:56:27.636Z,16.80
2018-10-21T11:01:33.015Z,18.73
2018-10-21T11:06:39.017Z,18.77
2018-10-21T11:11:43.511Z,17.27
2018-10-21T11:16:47.907Z,14.43
2018-10-21T11:21:52.554Z,12.73
2018-10-21T11:26:58.182Z,12.95
2018-10-21T11:32:02.727Z,12.37
2018-10-21T11:37:07.493Z,11.85
2018-10-21T11:42:11.915Z,11.28
2018-10-21T11:47:16.850Z,9.80
2018-10-21T11:52:21.579Z,10.60
2018-10-21T11:57:25.917Z,10.80
2018-10-21T12:02:30.315Z,10.98
2018-10-21T12:07:35.120Z,11.38
2018-10-21T12:12:40.633Z,11.22
2018-10-21T12:17:45.131Z,11.45
2018-10-21T12:22:49.731Z,12.43
2018-10-21T12:27:55.256Z,10.80
2018-10-21T12:32:59.931Z,12.30
2018-10-21T12:38:04.704Z,11.25
2018-10-21T12:43:09.256Z,12.60
2018-10-21T12:48:13.992Z,11.10
2018-10-21T12:53:18.544Z,10.95
2018-10-21T12:58:22.905Z,10.88
2018-10-21T13:03:27.375Z,11.50
2018-10-21T13:08:31.884Z,11.85
2018-10-21T13:13:36.408Z,10.65
2018-10-21T13:18:40.768Z,10.68
2018-10-21T13:23:45.898Z,9.50
2018-10-21T13:28:50.401Z,10.30
2018-10-21T13:33:55.498Z,9.33
2018-10-21T13:39:00.100Z,10.32
2018-10-21T13:44:05.517Z,8.80
2018-10-21T13:49:10.655Z,9.73
2018-10-21T13:54:14.958Z,9.13
2018-10-21T13:59:19.904Z,8.55
2018-10-21T14:04:24.854Z,8.23
2018-10-21T14:09:29.286Z,8.03
2018-10-21T14:14:34.314Z,6.95
2018-10-21T14:19:38.866Z,7.35
2018-10-21T14:24:43.482Z,6.85
2018-10-21T14:29:48.449Z,6.95
2018-10-21T14:34:53.611Z,5.90
2018-10-21T14:39:58.079Z,5.37
2018-10-21T14:45:02.745Z,5.08
2018-10-21T14:50:07.641Z,4.83
2018-10-21T14:55:12.028Z,4.08
2018-10-21T15:00:16.651Z,4.65
2018-10-21T15:05:21.964Z,4.08
2018-10-21T15:10:26.583Z,3.87
2018-10-21T15:15:31.226Z,4.55
2018-10-21T15:20:35.507Z,4.12
2018-10-21T15:25:40.906Z,3.50
2018-10-21T15:30:45.365Z,4.70
2018-10-21T15:36:02.603Z,4.47
2018-10-21T15:41:07.419Z,4.45
2018-10-21T15:46:12.038Z,4.85
2018-10-21T15:51:16.593Z,4.50
2018-10-21T15:56:22.004Z,4.47
2018-10-21T16:01:26.366Z,5.25
2018-10-21T16:06:30.719Z,4.92
2018-10-21T16:11:35.767Z,4.47
2018-10-21T16:16:40.336Z,4.87
2018-10-21T16:21:45.478Z,4.72
2018-10-21T16:26:50.415Z,5.35
2018-10-21T16:31:55.019Z,5.70
2018-10-21T16:36:59.529Z,5.50
2018-10-21T16:42:04.053Z,5.40
2018-10-21T16:52:59.642Z,5.22
2018-10-21T16:58:04.166Z,5.62
2018-10-21T17:03:08.557Z,5.58
2018-10-21T17:08:14.970Z,5.22
2018-10-21T17:13:20.520Z,5.62
2018-10-21T17:18:25.097Z,5.45
2018-10-21T17:23:30.063Z,6.20
2018-10-21T17:28:34.598Z,5.40
2018-10-21T17:33:39.443Z,5.45
2018-10-21T17:38:44.672Z,4.97
2018-10-21T17:43:49.275Z,6.08
2018-10-21T17:48:54.174Z,6.45
2018-10-21T17:53:59.254Z,5.10
2018-10-21T17:59:04.069Z,4.65
2018-10-21T18:04:09.940Z,4.35
2018-10-21T18:09:20.658Z,4.15
2018-10-21T18:14:25.927Z,3.42
2018-10-21T18:19:46.764Z,3.45
2018-10-21T18:24:52.340Z,3.85
2018-10-21T18:29:57.406Z,3.30
2018-10-21T18:35:01.862Z,3.25
2018-10-21T18:40:07.703Z,3.02
2018-10-21T18:45:14.637Z,3.72
2018-10-21T18:50:19.151Z,3.17
2018-10-21T18:55:23.779Z,3.35
2018-10-21T19:00:28.636Z,3.30
2018-10-21T19:05:33.635Z,2.92
2018-10-21T19:10:58.113Z,2.92
2018-10-21T19:16:03.075Z,3.05
2018-10-21T19:21:09.359Z,3.12
2018-10-21T19:26:14.055Z,3.42
2018-10-21T19:31:18.697Z,3.58
2018-10-21T19:36:23.918Z,3.58
2018-10-21T19:41:28.576Z,3.87
2018-10-21T19:46:34.825Z,3.60
2018-10-21T19:51:39.330Z,4.12
2018-10-21T19:56:44.007Z,3.75
2018-10-21T20:01:49.764Z,3.83
2018-10-21T20:06:55.417Z,3.98
2018-10-21T20:12:00.383Z,3.52
2018-10-21T20:17:05.687Z,3.33
2018-10-21T20:22:12.033Z,3.70
2018-10-21T20:27:17.485Z,3.90
2018-10-21T20:32:23.040Z,3.37
2018-10-21T20:37:27.490Z,3.47
2018-10-21T20:42:32.465Z,3.25
2018-10-21T20:47:37.442Z,3.67
2018-10-21T20:52:42.403Z,3.87
2018-10-21T20:57:47.098Z,3.57
2018-10-21T21:02:51.937Z,3.42
2018-10-21T21:07:56.561Z,3.77
2018-10-21T21:13:02.728Z,3.37
2018-10-21T21:18:12.807Z,4.10
2018-10-21T21:23:19.141Z,2.80
2018-10-21T21:28:23.686Z,3.65
2018-10-21T21:33:28.310Z,3.40
2018-10-21T21:38:32.589Z,3.50
2018-10-21T21:43:37.017Z,3.10
2018-10-21T21:48:41.635Z,3.00
2018-10-21T21:53:46.572Z,4.13
2018-10-21T21:58:51.303Z,3.40
2018-10-21T22:03:55.793Z,3.30
2018-10-21T22:09:00.989Z,4.07
2018-10-21T22:14:06.147Z,3.43
2018-10-21T22:19:10.796Z,3.73
2018-10-21T22:24:15.341Z,3.20
2018-10-21T22:29:20.143Z,3.07
2018-10-21T22:34:24.800Z,3.10
2018-10-21T22:39:29.848Z,3.70
2018-10-21T22:44:34.499Z,3.30
2018-10-21T22:49:39.056Z,3.00
2018-10-21T22:54:43.676Z,3.33
2018-10-21T23:07:11.269Z,3.47
2018-10-21T23:12:15.681Z,2.87
2018-10-21T23:17:27.292Z,3.53
2018-10-21T23:22:32.436Z,3.37
2018-10-21T23:27:37.664Z,3.73
2018-10-21T23:32:42.334Z,3.90
2018-10-21T23:37:46.906Z,3.70
2018-10-21T23:42:51.947Z,3.37
2018-10-21T23:47:56.554Z,3.53
2018-10-21T23:53:01.002Z,3.87
2018-10-21T23:58:05.522Z,4.27
